Details From MZBZ - Philip S W Goldson Intl
To MROC - San Jose Juan Santamaria Intl
Flight Number -
Tags Generated
Created
Modified
Stats Distance 512 nm / 949 km
Max Altitude 0 ft / 0 m
Waypoints 3
Social Downloads 2
Likes 0
Share VATSIM

Download

Looking for another format? Having issues loading an existing format? Contact us
Advertisement - Login to hide

Notes

Generated

Route

MZBZ R1514 MROC

ID Type Via Altitude Latitude Longitude Leg Dist Tot Dist Heading (true) Name
O MZBZ APT - 0 ft / 0 m 17.53690˚ -88.31812˚ - 0 nm - -
R1514 FIX - 0 ft / 0 m 9.98900˚ -84.22186˚ 512 nm 512 nm 152° / 153° -
O MROC APT - 0 ft / 0 m 9.98900˚ -84.22186˚ 0 nm 512 nm 0° / 180° -

Altitude Profile

Advertisement - Login to hide

Weather


0- 5 10 15 20 25 30 35+ Temperature / ° C

Clouds and Precipitation
Forecast for 2018-05-22 12:00 UTC. Updated an hour ago

Ground ~20,000 ft ~40,000 ft Winds

MZBZ

Details ICAO MZBZ (BZE)
Name Philip S W Goldson Intl
Region Belize
Timezone America/Belize (UTC-6.0)
Stats Elevation 15 ft / 5 m (AMSL)
Location 17.539144° -88.308201°
Runways 1
Magnetic Variation 0.617° W

METAR

MZBZ 221200Z 32005KT 9999 SCT017 25/24 A2981 Q1009 NOSIG RMK CB TOP-NW

Decode

TAF

TAF MZBZ 221100Z 2212/2312 VRB03KT 9999 SCT022 PROB30 TEMPO 2212/2216 5000 SHRA BKN015 BECMG 2214/2216 07008KT PROB40 TEMPO 2303/2312 4000 SHRA BKN014

Decode

Departure Runways

ID Width Length Bearing (true) Bearing (mag) Surface Threshold Offset Overrun Length
07 150 ft / 46 m 7,097 ft / 2,163 m 76.65° 77.27° Asphalt 0 ft / 0 m 200 ft / 61 m
25 150 ft / 46 m 7,097 ft / 2,163 m 256.66° 257.28° Asphalt 0 ft / 0 m 200 ft / 61 m

MROC

Details ICAO MROC (SJO)
Name San Jose Juan Santamaria Intl
Region Costa Rica
Timezone America/Costa_Rica (UTC-6.0)
Stats Elevation 3,021 ft / 921 m (AMSL)
Location 9.993927° -84.208884°
Runways 1
Magnetic Variation 1.782° W

METAR

MROC 221200Z 12003KT 8000 BCFG FEW030 SCT120 BKN200 20/19 A2998 NOSIG

Decode

TAF

MROC 221100Z 2212/2312 06005KT 9999 FEW035 SCT120 TX28/2218Z TN19/2310Z BECMG 2214/2216 22006KT TEMPO 2219/2223 28012KT 5000 TSRA SCT015CB BKN025 TEMPO 2300/2304 VRB02KT 3000 RA BR SCT001 BKN015

Decode

Destination Runways

ID Width Length Bearing (true) Bearing (mag) Surface Threshold Offset Overrun Length
07 151 ft / 46 m 9,994 ft / 3,046 m 68.91° 70.69° Asphalt 0 ft / 0 m 200 ft / 61 m
25 151 ft / 46 m 9,994 ft / 3,046 m 248.92° 250.70° Asphalt 1,969 ft / 600 m 200 ft / 61 m

Approach Navaids

Runway Type Ident Frequency Range Bearing (true) Bearing (mag) Slope Elevation
07 Localiser IOCO 109.50 MHz 18 nm / 33 km 68.89° 70.67° - 930 ft / 283 m (AMSL)
07 Glidescope IOCO 109.50 MHz 10 nm / 19 km 68.91° 70.70° 3.00° 930 ft / 283 m (AMSL)
07 DME IOCO 109.50 MHz 18 nm / 33 km - - - 930 ft / 283 m (AMSL)